Time;durP1;ratioP1;P1;durP2;ratioP2;P2;SDS_P1;SDS_P2;PMS_P1;PMS_P2;Temp;Humidity;BMP_temperature;BMP_pressure;BME280_temperature;BME280_humidity;BME280_pressure;Samples;Min_cycle;Max_cycle;Signal;HPM_P1;HPM_P2
2022/02/03 00:02:35;;;;;;;7.97;1.52;;;;;;;;;;4969557;28;20051;-66
2022/02/03 00:05:17;;;;;;;8.95;1.55;;;;;;;;;;4954188;28;20442;-66
2022/02/03 00:08:06;;;;;;;6.38;1.30;;;;;;;;;;4970449;28;20058;-67
2022/02/03 00:24:50;;;;;;;4.40;1.60;;;;;;;;;;4946338;28;20081;-66
2022/02/03 00:27:24;;;;;;;9.20;1.50;;;;;;;;;;4992207;28;20076;-66
2022/02/03 00:30:03;;;;;;;8.35;2.58;;;;;;;;;;4957998;28;20050;-67
2022/02/03 00:32:48;;;;;;;3.78;1.83;;;;;;;;;;4988574;28;20058;-66
2022/02/03 00:49:00;;;;;;;9.13;3.20;;;;;;;;;;4989989;28;20074;-66
2022/02/03 00:51:31;;;;;;;8.43;2.92;;;;;;;;;;4940779;28;20051;-67
2022/02/03 00:54:07;;;;;;;9.32;2.20;;;;;;;;;;4970536;28;20596;-66
2022/02/03 00:56:41;;;;;;;3.97;1.58;;;;;;;;;;4970768;28;20538;-66
2022/02/03 00:59:14;;;;;;;10.73;1.80;;;;;;;;;;4970567;28;20063;-67
2022/02/03 01:01:49;;;;;;;16.83;2.58;;;;;;;;;;4971236;28;20622;-66
2022/02/03 01:04:19;;;;;;;7.47;1.98;;;;;;;;;;4970512;28;20063;-66
2022/02/03 01:06:53;;;;;;;8.20;2.15;;;;;;;;;;4891856;28;20062;-66
2022/02/03 01:09:27;;;;;;;8.07;1.80;;;;;;;;;;4938200;28;20055;-66
2022/02/03 01:15:17;;;;;;;6.78;2.10;;;;;;;;;;4931975;29;20055;-68
2022/02/03 01:34:37;;;;;;;12.40;2.70;;;;;;;;;;4915903;29;20066;-66
2022/02/03 01:37:20;;;;;;;10.45;2.88;;;;;;;;;;4915771;29;20059;-67
2022/02/03 01:48:36;;;;;;;7.75;3.03;;;;;;;;;;4841984;29;20466;-68
2022/02/03 01:53:58;;;;;;;10.40;3.35;;;;;;;;;;4916565;29;20110;-67
2022/02/03 01:56:39;;;;;;;;;;;;;;;;;;4916816;29;20107;-68
2022/02/03 01:59:20;;;;;;;14.80;3.20;;;;;;;;;;4916502;29;19923;-67
2022/02/03 02:01:58;;;;;;;12.20;3.50;;;;;;;;;;4901261;29;20071;-67
2022/02/03 02:04:58;;;;;;;8.20;3.22;;;;;;;;;;4935193;29;20051;-68
2022/02/03 02:08:17;;;;;;;11.38;4.03;;;;;;;;;;4935259;29;20077;-67
2022/02/03 02:11:28;;;;;;;12.50;3.45;;;;;;;;;;4835844;29;20059;-68
2022/02/03 02:43:04;;;;;;;10.88;4.22;;;;;;;;;;4854807;29;20068;-67
2022/02/03 02:46:21;;;;;;;10.63;4.00;;;;;;;;;;4847876;29;20426;-67
2022/02/03 02:49:19;;;;;;;10.68;4.10;;;;;;;;;;4927293;29;20051;-67
2022/02/03 02:51:51;;;;;;;;;;;;;;;;;;4916006;29;20535;-68
2022/02/03 03:31:55;;;;;;;17.42;4.30;;;;;;;;;;4997442;28;20054;-65
2022/02/03 03:34:58;;;;;;;16.60;4.40;;;;;;;;;;4939917;28;20054;-65
2022/02/03 03:37:47;;;;;;;10.25;4.65;;;;;;;;;;4972038;28;20067;-65
2022/02/03 03:40:18;;;;;;;12.13;4.30;;;;;;;;;;4942941;29;20530;-64
2022/02/03 03:43:05;;;;;;;9.93;4.57;;;;;;;;;;4953043;29;20051;-65
2022/02/03 03:45:38;;;;;;;18.92;5.00;;;;;;;;;;4936796;29;20051;-65
2022/02/03 03:48:09;;;;;;;13.82;4.90;;;;;;;;;;4952712;29;20039;-65
2022/02/03 03:50:46;;;;;;;13.48;4.68;;;;;;;;;;4936620;28;20050;-64
2022/02/03 03:53:27;;;;;;;13.93;5.38;;;;;;;;;;4971854;28;20051;-65
2022/02/03 03:56:10;;;;;;;13.10;4.70;;;;;;;;;;4971801;28;20051;-65
2022/02/03 04:30:08;;;;;;;9.35;3.70;;;;;;;;;;4857771;29;20074;-66
2022/02/03 04:33:07;;;;;;;9.95;4.25;;;;;;;;;;4857673;29;20049;-63
2022/02/03 05:02:51;;;;;;;10.23;3.90;;;;;;;;;;4841197;29;20057;-63
2022/02/03 05:12:45;;;;;;;8.15;3.67;;;;;;;;;;4820214;29;20408;-64
2022/02/03 05:15:50;;;;;;;9.27;4.05;;;;;;;;;;4798771;29;20062;-66
2022/02/03 05:35:05;;;;;;;10.45;4.13;;;;;;;;;;4804806;29;20431;-64
2022/02/03 05:42:04;;;;;;;11.43;3.88;;;;;;;;;;4830945;29;20062;-65
2022/02/03 05:49:06;;;;;;;10.38;4.05;;;;;;;;;;4907016;29;20055;-65
2022/02/03 05:52:02;;;;;;;8.25;3.22;;;;;;;;;;4932349;28;20069;-64
2022/02/03 06:13:54;;;;;;;7.57;3.55;;;;;;;;;;4931670;29;20063;-65
2022/02/03 06:16:58;;;;;;;6.82;3.30;;;;;;;;;;4932224;29;20082;-66
2022/02/03 06:28:12;;;;;;;9.15;3.60;;;;;;;;;;4867883;29;20053;-64
2022/02/03 06:30:42;;;;;;;6.68;3.15;;;;;;;;;;4874797;29;20057;-64
2022/02/03 06:33:13;;;;;;;8.32;3.42;;;;;;;;;;4875499;29;20529;-65
2022/02/03 06:35:42;;;;;;;7.30;3.53;;;;;;;;;;4874366;29;20072;-64
2022/02/03 06:38:13;;;;;;;8.10;3.70;;;;;;;;;;4868255;29;20057;-64
2022/02/03 06:40:44;;;;;;;6.18;3.33;;;;;;;;;;4877576;29;20061;-63
2022/02/03 06:43:15;;;;;;;9.68;3.72;;;;;;;;;;4898349;29;20061;-64
2022/02/03 06:45:49;;;;;;;11.32;3.45;;;;;;;;;;4915644;29;20060;-64
2022/02/03 06:48:20;;;;;;;7.43;3.88;;;;;;;;;;4908504;29;20065;-65
2022/02/03 06:50:58;;;;;;;7.75;3.00;;;;;;;;;;4880687;29;20524;-63
2022/02/03 06:53:34;;;;;;;6.70;3.30;;;;;;;;;;4865397;29;20057;-64
2022/02/03 06:59:00;;;;;;;10.90;3.38;;;;;;;;;;4906086;29;20060;-61
2022/02/03 07:01:38;;;;;;;7.88;3.53;;;;;;;;;;4902639;29;20408;-64
2022/02/03 07:04:18;;;;;;;11.23;4.03;;;;;;;;;;4896110;29;20053;-64
2022/02/03 07:06:48;;;;;;;5.93;3.15;;;;;;;;;;4905354;29;20068;-64
2022/02/03 07:09:18;;;;;;;12.50;4.05;;;;;;;;;;4907988;29;20090;-64
2022/02/03 07:11:49;;;;;;;6.75;3.42;;;;;;;;;;4934331;29;20052;-64
2022/02/03 07:14:21;;;;;;;9.13;3.72;;;;;;;;;;4934001;29;20156;-66
2022/02/03 07:16:52;;;;;;;;;;;;;;;;;;4934237;29;20067;-64
2022/02/03 07:19:23;;;;;;;7.47;3.58;;;;;;;;;;4933725;29;19922;-64
2022/02/03 07:21:54;;;;;;;7.70;3.63;;;;;;;;;;4934038;29;20538;-64
2022/02/03 07:24:25;;;;;;;10.02;3.42;;;;;;;;;;4934014;29;20063;-64
2022/02/03 07:26:55;;;;;;;10.07;3.38;;;;;;;;;;4934086;29;20055;-64
2022/02/03 07:29:25;;;;;;;7.68;3.97;;;;;;;;;;4933216;29;20063;-65
2022/02/03 07:31:55;;;;;;;7.25;3.85;;;;;;;;;;4898533;29;20452;-65
2022/02/03 07:34:26;;;;;;;8.93;3.65;;;;;;;;;;4914796;29;20559;-65
2022/02/03 07:36:58;;;;;;;7.10;3.72;;;;;;;;;;4946908;29;20059;-64
2022/02/03 07:39:28;;;;;;;8.45;4.03;;;;;;;;;;4954328;28;20051;-64
2022/02/03 07:41:59;;;;;;;10.13;4.13;;;;;;;;;;4972307;28;20050;-63
2022/02/03 07:44:30;;;;;;;7.57;3.72;;;;;;;;;;4908629;28;20506;-64
2022/02/03 07:47:00;;;;;;;9.40;3.83;;;;;;;;;;4972123;28;20058;-64
2022/02/03 07:49:32;;;;;;;14.10;4.10;;;;;;;;;;4972149;28;20061;-64
2022/02/03 07:52:04;;;;;;;6.55;3.85;;;;;;;;;;4952780;29;20047;-64
2022/02/03 07:54:36;;;;;;;7.10;4.05;;;;;;;;;;4930874;28;20058;-63
2022/02/03 07:57:06;;;;;;;8.40;3.63;;;;;;;;;;4972154;28;20058;-64
2022/02/03 07:59:36;;;;;;;7.65;3.60;;;;;;;;;;4971850;28;20062;-64
2022/02/03 08:02:08;;;;;;;8.95;4.03;;;;;;;;;;4989796;28;20050;-63
2022/02/03 08:04:43;;;;;;;8.10;3.75;;;;;;;;;;4952091;29;20047;-64
2022/02/03 08:07:17;;;;;;;6.20;3.40;;;;;;;;;;4952373;29;20063;-64
2022/02/03 08:09:59;;;;;;;9.88;3.63;;;;;;;;;;4947863;28;20058;-67
2022/02/03 08:12:34;;;;;;;6.80;3.75;;;;;;;;;;4970575;28;20077;-68
2022/02/03 08:15:05;;;;;;;7.32;3.88;;;;;;;;;;4971472;28;20051;-67
2022/02/03 08:17:39;;;;;;;7.50;4.32;;;;;;;;;;4971560;28;20055;-66
2022/02/03 08:20:15;;;;;;;8.50;3.92;;;;;;;;;;4939766;28;20058;-66
2022/02/03 08:22:54;;;;;;;11.02;3.88;;;;;;;;;;4935015;29;20071;-66
2022/02/03 08:25:28;;;;;;;9.90;3.70;;;;;;;;;;4917105;29;20052;-67
2022/02/03 08:28:31;;;;;;;11.50;3.80;;;;;;;;;;4932956;29;20064;-67
2022/02/03 08:31:20;;;;;;;9.10;4.10;;;;;;;;;;4913687;29;20381;-66
2022/02/03 08:33:48;;;;;;;9.18;3.88;;;;;;;;;;4896354;29;20061;-66
2022/02/03 08:36:20;;;;;;;9.95;4.10;;;;;;;;;;4848326;29;20052;-67
2022/02/03 08:38:53;;;;;;;6.13;3.47;;;;;;;;;;4848054;29;20088;-65
2022/02/03 08:41:25;;;;;;;8.48;3.65;;;;;;;;;;4894932;29;20409;-67
2022/02/03 08:43:55;;;;;;;9.73;4.32;;;;;;;;;;4932157;29;20060;-66
2022/02/03 08:46:26;;;;;;;9.05;3.92;;;;;;;;;;4932596;29;20064;-67
2022/02/03 08:48:57;;;;;;;8.00;3.47;;;;;;;;;;4932316;29;20071;-66
2022/02/03 08:51:28;;;;;;;8.85;4.25;;;;;;;;;;4926697;29;20052;-66
2022/02/03 08:54:06;;;;;;;8.98;4.20;;;;;;;;;;4913330;29;20056;-67
2022/02/03 08:56:47;;;;;;;12.65;3.67;;;;;;;;;;4912734;29;20056;-67
2022/02/03 09:58:22;;;;;;;10.20;3.65;;;;;;;;;;4970140;28;20055;-66
2022/02/03 10:03:49;;;;;;;6.75;3.58;;;;;;;;;;4970169;28;20051;-65
2022/02/03 10:06:25;;;;;;;11.85;3.90;;;;;;;;;;4969912;28;20051;-66
2022/02/03 10:08:56;;;;;;;7.13;3.55;;;;;;;;;;4957958;28;20050;-65
2022/02/03 10:11:29;;;;;;;10.43;3.80;;;;;;;;;;4929826;29;20415;-66
2022/02/03 10:14:04;;;;;;;7.97;3.33;;;;;;;;;;4973764;28;20054;-66
2022/02/03 10:16:37;;;;;;;4.18;2.38;;;;;;;;;;4930965;28;20402;-68
2022/02/03 10:19:15;;;;;;;4.95;2.25;;;;;;;;;;4995396;28;20057;-67
2022/02/03 10:21:50;;;;;;;7.72;3.13;;;;;;;;;;4995444;28;20414;-66
2022/02/03 10:24:22;;;;;;;8.00;2.90;;;;;;;;;;4944642;28;20486;-66
2022/02/03 10:26:53;;;;;;;7.28;2.45;;;;;;;;;;4994113;28;20053;-65
2022/02/03 10:29:30;;;;;;;2.97;1.73;;;;;;;;;;4953679;29;20492;-66
2022/02/03 10:32:01;;;;;;;3.17;1.92;;;;;;;;;;4972064;28;20057;-67
2022/02/03 10:34:33;;;;;;;5.90;2.20;;;;;;;;;;4945599;28;20055;-66
2022/02/03 10:37:26;;;;;;;4.68;2.20;;;;;;;;;;4945056;28;20525;-66
2022/02/03 10:45:38;;;;;;;5.10;2.03;;;;;;;;;;4993027;28;20069;-66
2022/02/03 10:48:23;;;;;;;6.53;2.20;;;;;;;;;;4945096;28;20058;-67
2022/02/03 10:51:13;;;;;;;6.95;2.10;;;;;;;;;;4950657;29;20051;-66
2022/02/03 10:56:38;;;;;;;3.88;2.15;;;;;;;;;;4934200;29;20759;-68
2022/02/03 11:07:56;;;;;;;8.25;2.80;;;;;;;;;;4909526;29;20064;-68
2022/02/03 11:12:55;;;;;;;7.90;3.05;;;;;;;;;;4914406;29;20439;-67
2022/02/03 11:15:27;;;;;;;7.10;2.78;;;;;;;;;;4914469;29;20064;-66
2022/02/03 11:18:07;;;;;;;5.50;2.05;;;;;;;;;;4915157;29;20130;-65
2022/02/03 11:20:40;;;;;;;4.50;2.10;;;;;;;;;;4919745;29;20455;-67
2022/02/03 11:54:17;;;;;;;5.15;1.17;;;;;;;;;;4971782;28;20055;-66
2022/02/03 11:57:15;;;;;;;4.03;1.40;;;;;;;;;;4971985;28;20054;-66
2022/02/03 12:25:11;;;;;;;3.53;1.17;;;;;;;;;;4923405;29;20554;-65
2022/02/03 12:30:26;;;;;;;1.48;1.05;;;;;;;;;;4894440;29;20071;-66
2022/02/03 12:36:57;;;;;;;4.22;1.23;;;;;;;;;;4893971;29;20063;-64
2022/02/03 12:38:54;;;;;;;1.60;1.20;;;;;;;;;;4857148;29;20069;-64
2022/02/03 12:41:41;;;;;;;3.47;1.05;;;;;;;;;;4848584;29;20167;-65
2022/02/03 12:44:20;;;;;;;1.98;1.40;;;;;;;;;;4936137;28;20052;-64
2022/02/03 12:46:51;;;;;;;3.40;1.23;;;;;;;;;;4969791;28;20074;-68
2022/02/03 12:49:23;;;;;;;3.42;1.10;;;;;;;;;;4923755;28;20078;-69
2022/02/03 12:51:53;;;;;;;3.95;1.15;;;;;;;;;;4924204;29;20067;-70
2022/02/03 12:54:24;;;;;;;5.57;1.00;;;;;;;;;;4906266;29;20094;-66
2022/02/03 12:57:01;;;;;;;3.05;1.10;;;;;;;;;;4892133;29;20548;-65
2022/02/03 12:59:32;;;;;;;3.95;0.82;;;;;;;;;;4854154;29;20054;-66
2022/02/03 13:02:12;;;;;;;1.38;1.00;;;;;;;;;;4824071;29;20061;-65
2022/02/03 13:04:45;;;;;;;1.58;1.10;;;;;;;;;;4872500;29;20056;-65
2022/02/03 13:07:19;;;;;;;2.38;1.20;;;;;;;;;;4887497;29;20060;-66
2022/02/03 13:09:54;;;;;;;6.78;1.42;;;;;;;;;;4875463;29;20057;-65
2022/02/03 13:12:31;;;;;;;2.38;0.98;;;;;;;;;;4873568;29;20065;-65
2022/02/03 13:15:04;;;;;;;1.50;0.85;;;;;;;;;;4873105;29;20053;-66
2022/02/03 13:17:39;;;;;;;2.15;1.05;;;;;;;;;;4844097;29;20512;-64
2022/02/03 13:20:33;;;;;;;1.20;0.85;;;;;;;;;;4869605;29;20061;-65
2022/02/03 13:23:08;;;;;;;1.35;0.93;;;;;;;;;;4872142;29;20064;-65
2022/02/03 13:26:17;;;;;;;1.77;1.15;;;;;;;;;;4873607;29;20105;-68
2022/02/03 13:28:49;;;;;;;3.28;1.00;;;;;;;;;;4855083;29;20056;-65
2022/02/03 13:31:31;;;;;;;2.33;1.05;;;;;;;;;;4854017;29;20058;-64
2022/02/03 13:34:05;;;;;;;2.45;1.00;;;;;;;;;;4854715;29;20604;-63
2022/02/03 13:36:46;;;;;;;2.13;0.85;;;;;;;;;;4847912;29;20064;-64
2022/02/03 13:39:29;;;;;;;2.10;0.90;;;;;;;;;;4868093;29;20061;-65
2022/02/03 13:42:12;;;;;;;4.55;1.30;;;;;;;;;;4854316;29;20062;-68
2022/02/03 13:44:43;;;;;;;1.88;0.90;;;;;;;;;;4864312;29;20088;-64
2022/02/03 13:47:21;;;;;;;1.70;0.85;;;;;;;;;;4842555;29;20101;-66
2022/02/03 13:50:12;;;;;;;2.28;1.10;;;;;;;;;;4839098;29;20053;-67
2022/02/03 14:21:58;;;;;;;2.53;1.00;;;;;;;;;;4888415;29;20063;-62
2022/02/03 14:27:29;;;;;;;3.58;1.13;;;;;;;;;;4874002;29;20076;-69
2022/02/03 14:30:13;;;;;;;4.55;0.90;;;;;;;;;;4830159;29;20053;-69
2022/02/03 14:32:45;;;;;;;1.92;0.98;;;;;;;;;;4836753;29;20403;-67
2022/02/03 14:35:15;;;;;;;3.05;1.15;;;;;;;;;;4834048;29;20085;-67
2022/02/03 14:37:58;;;;;;;1.45;0.90;;;;;;;;;;4804359;29;20078;-69
2022/02/03 14:40:36;;;;;;;2.25;1.00;;;;;;;;;;4819204;29;20066;-67
2022/02/03 14:43:07;;;;;;;1.33;1.05;;;;;;;;;;4820266;29;20054;-67
2022/02/03 14:45:37;;;;;;;2.85;0.77;;;;;;;;;;4795490;29;20066;-67
2022/02/03 14:48:10;;;;;;;1.55;1.00;;;;;;;;;;4846663;29;20072;-69
2022/02/03 14:50:42;;;;;;;2.65;1.00;;;;;;;;;;4856173;29;20580;-69
2022/02/03 14:53:19;;;;;;;2.00;1.00;;;;;;;;;;4854388;29;20080;-72
2022/02/03 14:58:39;;;;;;;3.08;0.95;;;;;;;;;;4858377;29;20194;-75
2022/02/03 15:01:13;;;;;;;3.20;1.45;;;;;;;;;;4859218;29;20072;-75
2022/02/03 15:03:44;;;;;;;3.38;1.60;;;;;;;;;;4834586;29;20069;-75
2022/02/03 15:06:22;;;;;;;2.78;1.00;;;;;;;;;;4893910;29;20057;-73
2022/02/03 15:09:14;;;;;;;3.30;0.95;;;;;;;;;;4896304;29;20060;-77
2022/02/03 15:14:22;;;;;;;1.35;0.68;;;;;;;;;;4851982;29;20065;-71
2022/02/03 15:16:53;;;;;;;1.48;0.90;;;;;;;;;;4880664;29;20657;-76
2022/02/03 15:19:43;;;;;;;3.42;0.80;;;;;;;;;;4915110;29;20063;-73
2022/02/03 15:22:13;;;;;;;3.15;1.00;;;;;;;;;;4887398;29;20060;-76
2022/02/03 15:24:44;;;;;;;2.42;1.00;;;;;;;;;;4953443;29;20051;-74
2022/02/03 15:27:16;;;;;;;2.80;0.85;;;;;;;;;;4924271;28;20055;-73
2022/02/03 15:29:48;;;;;;;3.05;1.10;;;;;;;;;;4972247;28;20054;-75
2022/02/03 15:32:19;;;;;;;2.33;1.10;;;;;;;;;;4924538;28;20058;-74
2022/02/03 15:34:50;;;;;;;2.10;0.90;;;;;;;;;;4924338;28;20384;-76
2022/02/03 15:37:22;;;;;;;1.85;0.90;;;;;;;;;;4906651;29;20503;-75
2022/02/03 15:39:58;;;;;;;3.13;0.98;;;;;;;;;;4953345;29;20415;-77
2022/02/03 15:42:30;;;;;;;2.03;1.00;;;;;;;;;;4971535;28;20077;-77
2022/02/03 15:45:03;;;;;;;3.00;0.88;;;;;;;;;;4972188;28;20051;-76
2022/02/03 15:47:43;;;;;;;2.85;0.80;;;;;;;;;;4971865;28;20143;-77
2022/02/03 16:13:22;;;;;;;1.90;0.80;;;;;;;;;;4933145;29;20059;-77
2022/02/03 16:17:44;;;;;;;1.63;0.60;;;;;;;;;;4913968;29;20052;-77
2022/02/03 16:22:55;;;;;;;2.00;0.77;;;;;;;;;;4913854;29;20056;-74
2022/02/03 16:51:15;;;;;;;1.60;0.80;;;;;;;;;;4894527;29;20068;-73
2022/02/03 16:53:45;;;;;;;1.83;0.80;;;;;;;;;;4894182;29;20068;-76
2022/02/03 16:56:16;;;;;;;1.02;0.80;;;;;;;;;;4911471;29;20083;-76
2022/02/03 16:58:48;;;;;;;1.33;0.63;;;;;;;;;;4913645;29;20068;-75
2022/02/03 17:01:19;;;;;;;1.75;0.68;;;;;;;;;;4913168;29;20063;-77
2022/02/03 17:03:49;;;;;;;;;;;;;;;;;;4913768;29;20469;-78
2022/02/03 17:06:19;;;;;;;1.88;0.93;;;;;;;;;;4882240;29;19927;-72
2022/02/03 17:08:50;;;;;;;1.00;0.90;;;;;;;;;;4913346;29;20075;-77
2022/02/03 17:11:21;;;;;;;3.35;0.80;;;;;;;;;;4882661;29;20052;-77
2022/02/03 17:13:51;;;;;;;1.50;0.80;;;;;;;;;;4875442;29;20053;-77
2022/02/03 17:16:26;;;;;;;2.25;1.10;;;;;;;;;;4875473;29;20067;-75
2022/02/03 17:18:57;;;;;;;1.95;1.00;;;;;;;;;;4875238;29;20537;-78
2022/02/03 17:21:30;;;;;;;2.53;1.38;;;;;;;;;;4875543;29;20072;-77
2022/02/03 17:24:01;;;;;;;3.63;2.85;;;;;;;;;;4875426;29;20053;-75
2022/02/03 17:26:48;;;;;;;4.40;3.10;;;;;;;;;;4916383;28;20055;-76
2022/02/03 17:29:33;;;;;;;7.70;3.50;;;;;;;;;;4954630;28;20058;-74
2022/02/03 17:32:22;;;;;;;6.72;3.40;;;;;;;;;;4918870;29;20075;-77
2022/02/03 18:50:15;;;;;;;1.30;0.63;;;;;;;;;;4934622;29;20059;-75
2022/02/03 18:53:01;;;;;;;2.38;1.20;;;;;;;;;;4934506;29;20052;-75
2022/02/03 18:55:41;;;;;;;2.80;1.40;;;;;;;;;;4915852;29;20067;-75
2022/02/03 18:58:40;;;;;;;3.40;1.73;;;;;;;;;;4934632;29;20051;-74
2022/02/03 19:01:25;;;;;;;2.83;1.23;;;;;;;;;;4979819;28;20128;-73
2022/02/03 20:05:01;;;;;;;1.27;0.73;;;;;;;;;;4920730;29;20535;-73
2022/02/03 20:13:11;;;;;;;1.65;0.70;;;;;;;;;;4852220;29;20053;-72
2022/02/03 20:15:43;;;;;;;3.67;0.90;;;;;;;;;;4895017;29;20073;-67
2022/02/03 20:18:14;;;;;;;5.45;0.85;;;;;;;;;;4895304;29;20060;-74
2022/02/03 20:20:45;;;;;;;1.70;0.85;;;;;;;;;;4895132;29;20537;-72
2022/02/03 20:23:19;;;;;;;3.08;0.70;;;;;;;;;;4872557;29;20070;-69
2022/02/03 20:25:57;;;;;;;1.23;0.90;;;;;;;;;;4894452;29;20524;-72
2022/02/03 20:28:28;;;;;;;3.13;0.90;;;;;;;;;;4880769;29;20086;-72
2022/02/03 20:30:59;;;;;;;1.50;0.75;;;;;;;;;;4863689;29;20063;-72
2022/02/03 20:33:29;;;;;;;1.60;0.85;;;;;;;;;;4894584;29;20101;-74
2022/02/03 20:35:59;;;;;;;1.73;0.82;;;;;;;;;;4857215;29;20392;-73
2022/02/03 20:38:30;;;;;;;1.20;0.75;;;;;;;;;;4857599;29;20072;-73
2022/02/03 20:41:01;;;;;;;1.15;0.82;;;;;;;;;;4857474;29;20073;-74
2022/02/03 20:43:34;;;;;;;2.53;1.02;;;;;;;;;;4875613;29;20057;-72
2022/02/03 20:46:06;;;;;;;3.45;0.80;;;;;;;;;;4860743;29;20057;-70
2022/02/03 20:48:45;;;;;;;3.10;0.80;;;;;;;;;;4876275;29;20057;-72
2022/02/03 20:51:18;;;;;;;2.47;0.93;;;;;;;;;;4908704;29;20535;-72
2022/02/03 20:53:49;;;;;;;2.80;0.95;;;;;;;;;;4894257;29;20121;-73
2022/02/03 20:56:21;;;;;;;2.10;1.23;;;;;;;;;;4894217;29;20061;-74
2022/02/03 20:58:51;;;;;;;1.92;1.10;;;;;;;;;;4894578;29;20063;-71
2022/02/03 21:01:30;;;;;;;2.67;1.05;;;;;;;;;;4894227;29;20127;-74
2022/02/03 21:04:15;;;;;;;3.80;1.00;;;;;;;;;;4888870;29;20048;-71
2022/02/03 21:06:46;;;;;;;2.25;0.85;;;;;;;;;;4894370;29;20068;-73
2022/02/03 21:09:18;;;;;;;1.63;0.77;;;;;;;;;;4894708;29;20049;-72
2022/02/03 21:11:49;;;;;;;3.08;0.73;;;;;;;;;;4894278;29;20064;-73
2022/02/03 21:14:19;;;;;;;3.97;1.15;;;;;;;;;;4908875;29;20559;-72
2022/02/03 21:16:52;;;;;;;2.50;1.10;;;;;;;;;;4913257;29;20067;-73
2022/02/03 21:19:23;;;;;;;3.17;1.05;;;;;;;;;;4912890;29;20056;-73
2022/02/03 21:21:53;;;;;;;9.93;1.02;;;;;;;;;;4878678;29;20075;-71
2022/02/03 21:24:23;;;;;;;9.13;1.10;;;;;;;;;;4875433;29;20060;-74
2022/02/03 21:26:58;;;;;;;6.20;1.20;;;;;;;;;;4890623;29;20060;-73
2022/02/03 21:29:29;;;;;;;5.20;1.25;;;;;;;;;;4875064;29;20469;-74
2022/02/03 21:31:59;;;;;;;4.88;1.50;;;;;;;;;;4904079;29;20440;-73
2022/02/03 21:34:29;;;;;;;5.53;1.45;;;;;;;;;;4912992;29;20064;-74
2022/02/03 21:36:59;;;;;;;2.70;1.17;;;;;;;;;;4912829;29;20060;-73
2022/02/03 21:39:30;;;;;;;7.70;1.52;;;;;;;;;;4896699;29;20059;-74
2022/02/03 21:42:00;;;;;;;4.57;1.33;;;;;;;;;;4937802;29;20499;-72
2022/02/03 21:44:30;;;;;;;1.80;1.20;;;;;;;;;;4881126;29;20074;-74
2022/02/03 21:47:00;;;;;;;5.20;1.80;;;;;;;;;;4865717;29;20443;-72
2022/02/03 21:49:31;;;;;;;4.47;1.33;;;;;;;;;;4896663;29;20056;-70
2022/02/03 21:52:02;;;;;;;3.88;1.63;;;;;;;;;;4912811;29;20055;-74
2022/02/03 21:54:35;;;;;;;3.70;1.40;;;;;;;;;;4930894;29;20055;-74
2022/02/03 21:57:06;;;;;;;4.82;1.20;;;;;;;;;;4931662;29;20732;-73
2022/02/03 21:59:36;;;;;;;6.05;1.13;;;;;;;;;;4952472;28;20499;-73
2022/02/03 22:02:08;;;;;;;4.55;1.20;;;;;;;;;;4970073;28;20051;-73
2022/02/03 22:04:38;;;;;;;4.35;1.10;;;;;;;;;;4972993;28;20046;-73
2022/02/03 22:07:08;;;;;;;5.28;1.38;;;;;;;;;;4925889;28;20066;-73
2022/02/03 22:09:40;;;;;;;4.35;1.73;;;;;;;;;;4884793;29;20052;-73
2022/02/03 22:12:11;;;;;;;6.03;1.90;;;;;;;;;;4916216;29;20063;-73
2022/02/03 22:14:41;;;;;;;4.55;1.58;;;;;;;;;;4916014;29;20064;-72
2022/02/03 22:17:12;;;;;;;2.95;1.20;;;;;;;;;;4900529;29;20502;-73
2022/02/03 22:19:45;;;;;;;4.38;1.30;;;;;;;;;;4916177;29;20055;-72
2022/02/03 22:25:35;;;;;;;;;;;;;;;;;;4897787;29;20060;-72
2022/02/03 22:39:56;;;;;;;1.98;0.75;;;;;;;;;;4881389;29;21127;-73
2022/02/03 22:50:13;;;;;;;2.55;1.02;;;;;;;;;;4915600;29;20808;-70
2022/02/03 22:52:44;;;;;;;2.47;0.82;;;;;;;;;;4896590;29;20499;-70
2022/02/03 22:55:15;;;;;;;2.50;1.00;;;;;;;;;;4881306;29;20061;-71
2022/02/03 22:58:01;;;;;;;3.67;1.13;;;;;;;;;;4880938;29;21048;-71
2022/02/03 23:01:05;;;;;;;2.63;1.10;;;;;;;;;;4896606;29;20099;-69
2022/02/03 23:03:36;;;;;;;2.38;1.00;;;;;;;;;;4878023;29;20065;-70
2022/02/03 23:06:08;;;;;;;2.72;1.00;;;;;;;;;;4862380;29;20068;-71
2022/02/03 23:09:04;;;;;;;2.35;1.10;;;;;;;;;;4858887;29;20472;-71
2022/02/03 23:14:25;;;;;;;5.35;1.08;;;;;;;;;;4877707;29;20065;-69
2022/02/03 23:19:39;;;;;;;3.80;0.85;;;;;;;;;;4846560;29;20069;-72
2022/02/03 23:22:14;;;;;;;3.15;0.82;;;;;;;;;;4886712;29;20735;-72
2022/02/03 23:24:47;;;;;;;3.50;1.42;;;;;;;;;;4859066;29;20510;-72
2022/02/03 23:29:50;;;;;;;1.65;0.90;;;;;;;;;;4868556;29;20064;-69
2022/02/03 23:32:21;;;;;;;3.00;0.90;;;;;;;;;;4896164;29;20068;-70
2022/02/03 23:35:18;;;;;;;2.08;0.82;;;;;;;;;;4896000;29;20044;-72
2022/02/03 23:37:48;;;;;;;2.47;0.90;;;;;;;;;;4867697;29;20099;-71
2022/02/03 23:40:27;;;;;;;2.97;1.33;;;;;;;;;;4928510;29;20059;-71
2022/02/03 23:43:35;;;;;;;3.58;0.93;;;;;;;;;;4952461;28;20047;-71
2022/02/03 23:46:20;;;;;;;1.70;1.10;;;;;;;;;;4952633;29;20416;-70
